createdAt,value
2017-08-04T00:01:00.912Z,11.25
2017-08-04T00:03:28.764Z,9.30
2017-08-04T00:05:56.636Z,8.80
2017-08-04T00:08:24.435Z,9.07
2017-08-04T00:10:52.263Z,9.15
2017-08-04T00:13:20.090Z,9.68
2017-08-04T00:15:48.667Z,9.43
2017-08-04T00:18:17.292Z,10.75
2017-08-04T00:20:45.102Z,8.43
2017-08-04T00:23:13.673Z,12.95
2017-08-04T00:25:41.535Z,8.32
2017-08-04T00:28:09.336Z,8.43
2017-08-04T00:30:37.211Z,8.60
2017-08-04T00:33:05.011Z,8.57
2017-08-04T00:35:32.828Z,9.13
2017-08-04T00:38:00.676Z,10.10
2017-08-04T00:40:28.508Z,8.80
2017-08-04T00:42:56.371Z,8.27
2017-08-04T00:45:24.184Z,8.05
2017-08-04T00:47:52.019Z,8.85
2017-08-04T00:50:20.625Z,8.65
2017-08-04T00:52:48.441Z,7.97
2017-08-04T00:55:16.314Z,10.77
2017-08-04T00:57:44.123Z,11.60
2017-08-04T01:00:11.933Z,9.10
2017-08-04T01:02:39.762Z,7.45
2017-08-04T01:05:07.572Z,8.70
2017-08-04T01:07:36.203Z,9.32
2017-08-04T01:10:04.012Z,9.25
2017-08-04T01:12:32.584Z,9.27
2017-08-04T01:15:00.428Z,9.18
2017-08-04T01:17:28.224Z,13.15
2017-08-04T01:19:56.865Z,10.32
2017-08-04T01:22:24.723Z,9.48
2017-08-04T01:24:52.557Z,8.90
2017-08-04T01:27:20.391Z,11.10
2017-08-04T01:29:48.970Z,9.65
2017-08-04T01:32:17.668Z,8.98
2017-08-04T01:34:46.281Z,19.33
2017-08-04T01:37:14.095Z,9.70
2017-08-04T01:39:41.952Z,12.98
2017-08-04T01:42:09.788Z,8.80
2017-08-04T01:44:37.859Z,9.18
2017-08-04T01:47:05.684Z,8.75
2017-08-04T01:49:33.527Z,9.43
2017-08-04T01:52:01.385Z,9.55
2017-08-04T01:54:29.981Z,10.63
2017-08-04T01:56:57.848Z,12.40
2017-08-04T01:59:25.708Z,10.00
2017-08-04T02:01:53.540Z,13.70
2017-08-04T02:04:21.427Z,8.75
2017-08-04T02:06:49.273Z,8.82
2017-08-04T02:09:17.187Z,8.27
2017-08-04T02:11:45.007Z,8.27
2017-08-04T02:14:13.638Z,15.20
2017-08-04T02:16:41.513Z,14.60
2017-08-04T02:19:09.379Z,11.95
2017-08-04T02:21:37.270Z,10.35
2017-08-04T02:24:05.147Z,9.95
2017-08-04T02:26:32.976Z,9.20
2017-08-04T02:29:00.803Z,9.70
2017-08-04T02:31:28.683Z,13.68
2017-08-04T02:33:56.584Z,10.75
2017-08-04T02:36:24.399Z,10.40
2017-08-04T02:38:52.256Z,10.13
2017-08-04T02:41:20.090Z,11.38
2017-08-04T02:43:47.896Z,9.63
2017-08-04T02:46:15.758Z,11.57
2017-08-04T02:48:43.564Z,9.63
2017-08-04T02:51:12.136Z,8.35
2017-08-04T02:53:39.992Z,9.00
2017-08-04T02:56:07.793Z,8.75
2017-08-04T02:58:36.423Z,12.40
2017-08-04T03:01:04.236Z,9.30
2017-08-04T03:03:32.828Z,8.52
2017-08-04T03:06:01.432Z,10.65
2017-08-04T03:08:29.310Z,9.43
2017-08-04T03:10:57.207Z,11.30
2017-08-04T03:13:25.024Z,9.80
2017-08-04T03:15:52.828Z,9.77
2017-08-04T03:18:20.660Z,7.97
2017-08-04T03:20:48.464Z,8.88
2017-08-04T03:23:16.314Z,11.05
2017-08-04T03:25:44.114Z,8.05
2017-08-04T03:28:12.676Z,8.25
2017-08-04T03:30:40.534Z,7.75
2017-08-04T03:33:08.339Z,8.48
2017-08-04T03:35:36.207Z,9.80
2017-08-04T03:38:04.021Z,9.85
2017-08-04T03:40:31.847Z,11.38
2017-08-04T03:42:59.752Z,11.25
2017-08-04T03:45:27.566Z,11.30
2017-08-04T03:47:55.573Z,9.60
2017-08-04T03:50:23.407Z,9.00
2017-08-04T03:52:51.223Z,8.23
2017-08-04T03:55:19.848Z,11.40
2017-08-04T03:57:47.696Z,8.32
2017-08-04T04:00:15.665Z,10.98
2017-08-04T04:02:43.472Z,8.73
2017-08-04T04:05:11.276Z,10.57
2017-08-04T04:07:39.136Z,9.15
2017-08-04T04:10:07.724Z,10.77
2017-08-04T04:12:35.615Z,8.50
2017-08-04T04:15:03.476Z,11.68
2017-08-04T04:17:31.314Z,9.93
2017-08-04T04:19:59.180Z,10.80
2017-08-04T04:22:27.028Z,10.13
2017-08-04T04:24:55.957Z,9.30
2017-08-04T04:27:23.787Z,11.57
2017-08-04T04:29:51.589Z,9.15
2017-08-04T04:32:19.427Z,8.90
2017-08-04T04:34:47.224Z,12.43
2017-08-04T04:37:15.089Z,11.07
2017-08-04T04:39:42.919Z,11.73
2017-08-04T04:42:10.744Z,9.82
2017-08-04T04:44:38.592Z,12.15
2017-08-04T04:47:06.410Z,10.30
2017-08-04T04:49:34.280Z,13.00
2017-08-04T04:52:02.093Z,13.05
2017-08-04T04:54:29.895Z,11.57
2017-08-04T04:56:57.744Z,13.98
2017-08-04T04:59:26.384Z,12.07
2017-08-04T05:04:31.196Z,11.88
2017-08-04T05:06:59.428Z,9.13
2017-08-04T05:09:27.422Z,10.15
2017-08-04T05:11:56.890Z,16.80
2017-08-04T05:14:24.920Z,12.90
2017-08-04T05:16:54.302Z,10.85
2017-08-04T05:19:22.347Z,20.73
2017-08-04T05:21:50.309Z,11.38
2017-08-04T05:24:18.885Z,20.35
2017-08-04T05:26:47.500Z,9.73
2017-08-04T05:29:15.307Z,15.80
2017-08-04T05:31:43.188Z,12.73
2017-08-04T05:34:11.767Z,13.88
2017-08-04T05:36:40.359Z,9.85
2017-08-04T05:39:08.197Z,14.10
2017-08-04T05:41:36.010Z,11.75
2017-08-04T05:44:03.952Z,12.13
2017-08-04T05:46:31.778Z,13.57
2017-08-04T05:49:06.092Z,10.30
2017-08-04T05:51:33.945Z,9.80
2017-08-04T05:54:01.809Z,9.57
2017-08-04T05:56:30.198Z,8.95
2017-08-04T05:58:58.154Z,11.07
2017-08-04T06:01:26.019Z,12.93
2017-08-04T06:03:53.900Z,8.18
2017-08-04T06:06:22.261Z,10.82
2017-08-04T06:08:50.231Z,8.38
2017-08-04T06:11:19.084Z,8.88
2017-08-04T06:13:46.911Z,8.25
2017-08-04T06:16:17.397Z,9.88
2017-08-04T06:18:53.395Z,11.48
2017-08-04T06:21:26.994Z,9.38
2017-08-04T06:23:54.982Z,7.05
2017-08-04T06:26:24.561Z,7.65
2017-08-04T06:28:53.121Z,10.90
2017-08-04T06:31:24.612Z,10.25
2017-08-04T06:33:52.518Z,10.65
2017-08-04T06:36:20.338Z,8.30
2017-08-04T06:38:48.211Z,8.05
2017-08-04T06:41:16.072Z,8.60
2017-08-04T06:43:43.962Z,11.27
2017-08-04T06:46:11.872Z,7.30
2017-08-04T06:48:52.385Z,10.68
2017-08-04T06:51:31.989Z,6.87
2017-08-04T06:54:11.540Z,7.70
2017-08-04T06:56:39.423Z,10.05
2017-08-04T06:59:07.252Z,7.70
2017-08-04T07:01:35.137Z,6.43
2017-08-04T07:04:03.004Z,6.37
2017-08-04T07:06:30.831Z,5.70
2017-08-04T07:08:58.727Z,5.65
2017-08-04T07:11:26.547Z,5.37
2017-08-04T07:13:55.127Z,7.25
2017-08-04T07:16:23.778Z,6.50
2017-08-04T07:18:51.596Z,6.70
2017-08-04T07:21:19.480Z,6.07
2017-08-04T07:23:47.347Z,3.80
2017-08-04T07:26:15.169Z,4.83
2017-08-04T07:28:43.025Z,3.33
2017-08-04T07:31:11.613Z,7.27
2017-08-04T07:33:39.496Z,6.20
2017-08-04T07:36:07.312Z,6.83
2017-08-04T07:38:35.188Z,7.00
2017-08-04T07:41:03.816Z,6.82
2017-08-04T07:43:31.638Z,6.03
2017-08-04T07:46:00.304Z,4.03
2017-08-04T07:48:28.150Z,4.62
2017-08-04T07:50:55.992Z,8.40
2017-08-04T07:53:23.849Z,5.60
2017-08-04T07:55:51.715Z,4.33
2017-08-04T07:58:19.632Z,3.50
2017-08-04T08:00:47.492Z,4.80
2017-08-04T08:03:15.299Z,3.67
2017-08-04T08:05:43.224Z,2.97
2017-08-04T08:08:11.044Z,2.70
2017-08-04T08:10:38.920Z,2.80
2017-08-04T08:13:06.776Z,4.10
2017-08-04T08:15:34.623Z,3.67
2017-08-04T08:18:02.488Z,4.20
2017-08-04T08:20:30.344Z,6.13
2017-08-04T08:22:58.284Z,2.60
2017-08-04T08:25:26.885Z,3.67
2017-08-04T08:27:54.708Z,5.23
2017-08-04T08:30:22.578Z,4.47
2017-08-04T08:32:50.416Z,5.17
2017-08-04T08:35:18.333Z,3.83
2017-08-04T08:37:46.176Z,4.37
2017-08-04T08:40:14.816Z,5.23
2017-08-04T08:42:42.667Z,4.87
2017-08-04T08:45:10.537Z,5.57
2017-08-04T08:47:38.448Z,4.30
2017-08-04T08:50:06.271Z,3.33
2017-08-04T08:52:34.088Z,4.37
2017-08-04T08:55:02.713Z,7.73
2017-08-04T08:57:30.518Z,3.47
2017-08-04T08:59:58.395Z,4.10
2017-08-04T09:02:27.029Z,5.30
2017-08-04T09:04:54.841Z,3.13
2017-08-04T09:07:23.460Z,5.40
2017-08-04T09:09:51.268Z,5.17
2017-08-04T09:12:19.143Z,5.20
2017-08-04T09:14:47.720Z,3.47
2017-08-04T09:17:16.303Z,3.43
2017-08-04T09:19:44.167Z,5.07
2017-08-04T09:22:11.987Z,6.80
2017-08-04T09:24:39.871Z,4.40
2017-08-04T09:27:07.709Z,4.43
2017-08-04T09:29:35.564Z,5.57
2017-08-04T09:32:03.419Z,3.60
2017-08-04T09:34:31.255Z,5.97
2017-08-04T09:36:59.918Z,6.00
2017-08-04T09:39:27.780Z,9.10
2017-08-04T09:41:55.725Z,4.10
2017-08-04T09:44:23.588Z,4.83
2017-08-04T09:46:51.449Z,4.10
2017-08-04T09:49:19.379Z,7.60
2017-08-04T09:51:47.272Z,5.13
2017-08-04T09:54:15.125Z,4.50
2017-08-04T09:56:42.996Z,5.70
2017-08-04T09:59:10.856Z,6.50
2017-08-04T10:01:38.750Z,7.47
2017-08-04T10:04:06.627Z,5.87
2017-08-04T10:06:34.452Z,4.77
2017-08-04T10:09:02.292Z,5.10
2017-08-04T10:11:30.138Z,5.97
2017-08-04T10:13:58.050Z,5.30
2017-08-04T10:16:25.873Z,6.03
2017-08-04T10:18:53.734Z,9.97
2017-08-04T10:21:22.377Z,4.33
2017-08-04T10:23:50.201Z,5.20
2017-08-04T10:26:18.094Z,7.10
2017-08-04T10:28:45.951Z,5.13
2017-08-04T10:31:13.766Z,7.97
2017-08-04T10:33:42.384Z,5.33
2017-08-04T10:36:10.247Z,6.10
2017-08-04T10:38:38.165Z,5.27
2017-08-04T10:41:06.060Z,5.33
2017-08-04T10:43:33.880Z,4.90
2017-08-04T10:46:01.719Z,4.80
2017-08-04T10:48:29.633Z,4.77
2017-08-04T10:50:57.581Z,6.00
2017-08-04T10:53:26.219Z,4.97
2017-08-04T10:55:54.049Z,4.80
2017-08-04T10:58:21.931Z,4.63
2017-08-04T11:00:49.763Z,7.87
2017-08-04T11:03:18.427Z,6.10
2017-08-04T11:05:46.251Z,5.23
2017-08-04T11:08:14.077Z,5.00
2017-08-04T11:10:41.943Z,9.97
2017-08-04T11:13:09.789Z,2.63
2017-08-04T11:15:37.692Z,2.87
2017-08-04T11:18:05.517Z,7.87
2017-08-04T11:20:33.346Z,5.37
2017-08-04T11:23:01.205Z,5.10
2017-08-04T11:25:29.020Z,5.57
2017-08-04T11:27:57.019Z,4.53
2017-08-04T11:30:24.884Z,4.03
2017-08-04T11:32:52.724Z,7.23
2017-08-04T11:35:20.627Z,5.97
2017-08-04T11:37:48.479Z,5.57
2017-08-04T11:40:16.380Z,3.97
2017-08-04T11:42:44.268Z,6.03
2017-08-04T11:45:12.102Z,3.37
2017-08-04T11:47:39.935Z,11.03
2017-08-04T11:50:08.833Z,3.00
2017-08-04T11:52:36.678Z,5.97
2017-08-04T11:55:04.517Z,3.93
2017-08-04T11:57:32.419Z,5.80
2017-08-04T12:00:00.261Z,5.70
2017-08-04T12:02:28.109Z,5.77
2017-08-04T12:04:56.246Z,3.53
2017-08-04T12:07:24.158Z,4.30
2017-08-04T12:09:51.998Z,3.37
2017-08-04T12:12:19.849Z,6.43
2017-08-04T12:14:47.683Z,3.87
2017-08-04T12:17:15.538Z,4.63
2017-08-04T12:19:43.441Z,3.00
2017-08-04T12:22:12.066Z,3.30
2017-08-04T12:24:39.902Z,4.77
2017-08-04T12:27:07.760Z,4.50
2017-08-04T12:29:35.605Z,3.70
2017-08-04T12:32:03.467Z,3.73
2017-08-04T12:34:31.336Z,3.67
2017-08-04T12:36:59.161Z,3.33
2017-08-04T12:39:27.017Z,2.80
2017-08-04T12:41:54.856Z,4.40
2017-08-04T12:44:22.736Z,4.23
2017-08-04T12:46:50.607Z,4.00
2017-08-04T12:49:18.440Z,6.87
2017-08-04T12:51:46.355Z,3.03
2017-08-04T12:54:14.277Z,5.87
2017-08-04T12:56:42.209Z,4.60
2017-08-04T12:59:10.845Z,2.53
2017-08-04T13:01:38.698Z,3.70
2017-08-04T13:04:06.581Z,3.93
2017-08-04T13:06:34.439Z,3.12
2017-08-04T13:09:02.369Z,3.63
2017-08-04T13:11:30.961Z,3.53
2017-08-04T13:13:58.790Z,4.50
2017-08-04T13:16:26.678Z,3.17
2017-08-04T13:18:54.533Z,4.18
2017-08-04T13:21:23.215Z,3.75
2017-08-04T13:23:51.828Z,2.30
2017-08-04T13:26:19.669Z,4.53
2017-08-04T13:28:48.301Z,3.45
2017-08-04T13:31:16.134Z,5.30
2017-08-04T13:33:44.037Z,6.55
2017-08-04T13:36:11.924Z,2.67
2017-08-04T13:38:45.375Z,9.55
2017-08-04T13:41:13.199Z,3.58
2017-08-04T13:43:41.876Z,5.12
2017-08-04T13:46:10.509Z,4.05
2017-08-04T13:48:38.382Z,3.60
2017-08-04T13:51:06.273Z,5.10
2017-08-04T13:53:34.106Z,6.70
2017-08-04T13:56:01.928Z,11.43
2017-08-04T13:58:29.801Z,5.10
2017-08-04T14:00:57.627Z,3.72
2017-08-04T14:03:25.507Z,7.47
2017-08-04T14:05:54.108Z,4.65
2017-08-04T14:08:21.994Z,5.30
2017-08-04T14:10:49.838Z,3.17
2017-08-04T14:13:17.715Z,4.85
2017-08-04T14:15:45.565Z,4.47
2017-08-04T14:18:13.392Z,3.40
2017-08-04T14:20:41.261Z,3.97
2017-08-04T14:23:09.075Z,4.60
2017-08-04T14:25:37.003Z,2.50
2017-08-04T14:28:05.619Z,3.78
2017-08-04T14:30:33.499Z,4.10
2017-08-04T14:33:01.407Z,1.90
2017-08-04T14:35:30.038Z,4.22
2017-08-04T14:37:57.909Z,4.22
2017-08-04T14:40:25.747Z,2.55
2017-08-04T14:42:53.654Z,3.53
2017-08-04T14:45:21.514Z,2.97
2017-08-04T14:47:49.334Z,5.65
2017-08-04T14:50:17.247Z,2.65
2017-08-04T14:52:45.122Z,7.47
2017-08-04T14:55:13.010Z,3.83
2017-08-04T14:57:41.618Z,2.90
2017-08-04T15:00:09.451Z,3.97
2017-08-04T15:02:38.075Z,3.95
2017-08-04T15:05:05.926Z,2.90
2017-08-04T15:07:33.847Z,4.87
2017-08-04T15:10:01.696Z,4.50
2017-08-04T15:12:29.528Z,4.60
2017-08-04T15:14:57.420Z,3.55
2017-08-04T15:17:25.240Z,7.78
2017-08-04T15:19:53.142Z,9.13
2017-08-04T15:22:21.046Z,3.72
2017-08-04T15:24:48.873Z,3.37
2017-08-04T15:27:16.740Z,3.78
2017-08-04T15:29:44.575Z,4.97
2017-08-04T15:32:12.469Z,3.22
2017-08-04T15:34:40.497Z,6.45
2017-08-04T15:37:08.323Z,5.90
2017-08-04T15:39:36.982Z,3.65
2017-08-04T15:42:04.813Z,4.22
2017-08-04T15:44:32.721Z,8.90
2017-08-04T15:47:00.580Z,6.05
2017-08-04T15:49:28.394Z,4.25
2017-08-04T15:51:56.304Z,5.80
2017-08-04T15:54:24.158Z,4.78
2017-08-04T15:56:52.073Z,11.05
2017-08-04T15:59:19.904Z,2.75
2017-08-04T16:01:47.778Z,1.98
2017-08-04T16:04:16.411Z,7.50
2017-08-04T16:06:44.246Z,6.35
2017-08-04T16:09:12.154Z,5.60
2017-08-04T16:11:40.011Z,8.95
2017-08-04T16:14:07.879Z,4.35
2017-08-04T16:16:35.760Z,5.05
2017-08-04T16:19:03.639Z,3.00
2017-08-04T16:21:32.334Z,5.87
2017-08-04T16:24:00.216Z,4.15
2017-08-04T16:26:28.065Z,5.22
2017-08-04T16:28:56.707Z,6.37
2017-08-04T16:31:24.520Z,4.55
2017-08-04T16:33:52.431Z,5.28
2017-08-04T16:36:20.369Z,7.57
2017-08-04T16:38:48.188Z,4.35
2017-08-04T16:41:16.803Z,4.37
2017-08-04T16:43:44.641Z,5.20
2017-08-04T16:46:13.539Z,6.32
2017-08-04T16:48:41.418Z,5.07
2017-08-04T16:51:09.391Z,4.18
2017-08-04T16:53:37.417Z,7.60
2017-08-04T16:56:05.336Z,5.10
2017-08-04T16:58:33.344Z,4.55
2017-08-04T17:01:01.289Z,6.15
2017-08-04T17:03:29.184Z,4.57
2017-08-04T17:05:57.931Z,4.47
2017-08-04T17:08:25.879Z,4.37
2017-08-04T17:10:54.013Z,8.55
2017-08-04T17:13:21.906Z,7.80
2017-08-04T17:15:49.743Z,7.57
2017-08-04T17:18:18.361Z,5.68
2017-08-04T17:20:46.226Z,6.50
2017-08-04T17:23:14.179Z,3.40
2017-08-04T17:25:41.997Z,8.90
2017-08-04T17:28:09.982Z,8.13
2017-08-04T17:30:38.606Z,6.75
2017-08-04T17:33:06.455Z,5.65
2017-08-04T17:35:34.715Z,5.60
2017-08-04T17:38:02.577Z,9.13
2017-08-04T17:40:30.406Z,7.22
2017-08-04T17:42:58.262Z,4.82
2017-08-04T17:45:26.104Z,6.80
2017-08-04T17:47:54.021Z,7.97
2017-08-04T17:50:22.672Z,5.20
2017-08-04T17:52:50.540Z,5.47
2017-08-04T17:55:18.427Z,4.87
2017-08-04T17:57:47.195Z,8.18
2017-08-04T18:00:15.112Z,8.55
2017-08-04T18:02:54.695Z,5.93
2017-08-04T18:05:22.658Z,10.45
2017-08-04T18:07:51.322Z,10.02
2017-08-04T18:10:19.181Z,6.15
2017-08-04T18:12:47.023Z,6.15
2017-08-04T18:15:14.856Z,5.78
2017-08-04T18:17:42.887Z,3.20
2017-08-04T18:20:10.744Z,8.35
2017-08-04T18:22:38.579Z,9.45
2017-08-04T18:25:06.442Z,5.50
2017-08-04T18:27:34.349Z,6.55
2017-08-04T18:30:02.254Z,3.53
2017-08-04T18:32:30.145Z,3.40
2017-08-04T18:34:58.095Z,7.00
2017-08-04T18:37:26.112Z,3.67
2017-08-04T18:39:55.066Z,8.57
2017-08-04T18:42:22.968Z,8.20
2017-08-04T18:44:50.786Z,6.50
2017-08-04T18:47:18.622Z,4.60
2017-08-04T18:49:47.327Z,10.75
2017-08-04T18:52:15.182Z,5.40
2017-08-04T18:54:43.154Z,10.00
2017-08-04T18:57:11.004Z,4.00
2017-08-04T18:59:39.621Z,4.78
2017-08-04T19:02:07.527Z,6.47
2017-08-04T19:04:36.204Z,6.55
2017-08-04T19:07:04.171Z,3.92
2017-08-04T19:09:32.733Z,6.00
2017-08-04T19:12:00.615Z,5.25
2017-08-04T19:14:28.478Z,8.15
2017-08-04T19:16:56.323Z,6.07
2017-08-04T19:19:24.237Z,5.70
2017-08-04T19:21:52.854Z,4.93
2017-08-04T19:24:20.679Z,8.63
2017-08-04T19:26:49.311Z,10.38
2017-08-04T19:29:17.179Z,8.30
2017-08-04T19:31:45.096Z,4.93
2017-08-04T19:34:13.695Z,5.80
2017-08-04T19:36:41.720Z,6.72
2017-08-04T19:39:10.345Z,4.05
2017-08-04T19:41:38.175Z,7.32
2017-08-04T19:44:06.833Z,5.62
2017-08-04T19:46:34.655Z,7.47
2017-08-04T19:49:02.646Z,13.35
2017-08-04T19:51:30.523Z,4.97
2017-08-04T19:53:58.392Z,4.82
2017-08-04T19:56:26.304Z,4.53
2017-08-04T19:58:54.207Z,8.40
2017-08-04T20:01:22.095Z,6.97
2017-08-04T20:03:49.977Z,4.12
2017-08-04T20:06:17.795Z,4.75
2017-08-04T20:08:45.673Z,7.50
2017-08-04T20:11:13.500Z,6.65
2017-08-04T20:13:41.389Z,9.73
2017-08-04T20:16:09.356Z,6.87
2017-08-04T20:18:37.185Z,9.13
2017-08-04T20:21:05.099Z,5.40
2017-08-04T20:23:33.040Z,6.30
2017-08-04T20:26:00.856Z,5.45
2017-08-04T20:28:29.464Z,10.20
2017-08-04T20:30:57.310Z,8.30
2017-08-04T20:33:25.279Z,5.25
2017-08-04T20:35:53.146Z,4.45
2017-08-04T20:38:21.004Z,6.75
2017-08-04T20:40:48.865Z,9.15
2017-08-04T20:43:17.455Z,5.28
2017-08-04T20:45:45.336Z,8.15
2017-08-04T20:48:13.201Z,7.57
2017-08-04T20:50:41.049Z,4.70
2017-08-04T20:53:08.974Z,8.00
2017-08-04T20:55:36.876Z,8.23
2017-08-04T20:58:04.747Z,4.43
2017-08-04T21:00:32.655Z,5.00
2017-08-04T21:03:00.474Z,6.40
2017-08-04T21:05:28.309Z,8.32
2017-08-04T21:07:56.887Z,7.72
2017-08-04T21:10:24.753Z,5.05
2017-08-04T21:12:53.354Z,11.90
2017-08-04T21:15:21.168Z,11.55
2017-08-04T21:17:49.008Z,5.82
2017-08-04T21:20:16.831Z,9.80
2017-08-04T21:22:44.823Z,8.18
2017-08-04T21:25:12.648Z,5.93
2017-08-04T21:27:40.502Z,7.12
2017-08-04T21:30:08.352Z,5.25
2017-08-04T21:32:36.204Z,11.60
2017-08-04T21:35:04.060Z,8.15
2017-08-04T21:37:31.921Z,5.37
2017-08-04T21:39:59.732Z,10.13
2017-08-04T21:42:28.363Z,6.20
2017-08-04T21:44:56.206Z,6.00
2017-08-04T21:47:24.168Z,4.30
2017-08-04T21:49:52.028Z,7.25
2017-08-04T21:52:19.837Z,5.57
2017-08-04T21:54:47.720Z,4.80
2017-08-04T21:57:15.534Z,6.07
2017-08-04T21:59:43.421Z,4.95
2017-08-04T22:02:11.262Z,4.75
2017-08-04T22:04:39.105Z,5.18
2017-08-04T22:07:06.947Z,5.00
2017-08-04T22:09:35.544Z,4.60
2017-08-04T22:12:04.190Z,8.75
2017-08-04T22:14:32.003Z,6.30
2017-08-04T22:16:59.826Z,10.32
2017-08-04T22:19:27.672Z,4.87
2017-08-04T22:21:55.497Z,8.13
2017-08-04T22:24:23.379Z,7.90
2017-08-04T22:26:51.191Z,4.97
2017-08-04T22:29:19.787Z,8.77
2017-08-04T22:31:47.668Z,10.95
2017-08-04T22:34:15.480Z,7.70
2017-08-04T22:36:43.341Z,5.78
2017-08-04T22:39:11.155Z,7.82
2017-08-04T22:41:38.981Z,7.12
2017-08-04T22:44:06.827Z,9.60
2017-08-04T22:46:34.657Z,7.55
2017-08-04T22:49:02.527Z,5.43
2017-08-04T22:51:30.349Z,6.87
2017-08-04T22:53:58.927Z,6.60
2017-08-04T22:56:27.585Z,6.53
2017-08-04T22:58:55.404Z,8.15
2017-08-04T23:01:23.281Z,7.93
2017-08-04T23:03:51.096Z,8.10
2017-08-04T23:06:18.930Z,6.22
2017-08-04T23:08:46.772Z,8.57
2017-08-04T23:11:14.583Z,6.20
2017-08-04T23:13:43.218Z,8.48
2017-08-04T23:16:11.101Z,5.50
2017-08-04T23:18:38.927Z,5.85
2017-08-04T23:21:06.767Z,3.90
2017-08-04T23:23:35.362Z,7.57
2017-08-04T23:26:03.239Z,6.87
2017-08-04T23:28:31.061Z,5.32
2017-08-04T23:30:58.902Z,5.80
2017-08-04T23:33:26.780Z,6.20
2017-08-04T23:35:54.608Z,4.93
2017-08-04T23:38:22.505Z,5.90
2017-08-04T23:40:50.353Z,5.65
2017-08-04T23:43:18.184Z,5.97
2017-08-04T23:45:46.042Z,10.05
2017-08-04T23:48:13.880Z,6.65
2017-08-04T23:50:42.520Z,5.40
2017-08-04T23:53:10.344Z,6.32
2017-08-04T23:55:38.170Z,9.55
2017-08-04T23:58:06.016Z,6.00
